createdAt,value
2019-04-06T00:00:10.170Z,11.70
2019-04-06T00:02:40.629Z,11.61
2019-04-06T00:05:12.166Z,11.53
2019-04-06T00:07:45.368Z,11.50
2019-04-06T00:10:16.379Z,11.48
2019-04-06T00:12:46.855Z,11.48
2019-04-06T00:15:17.325Z,11.48
2019-04-06T00:17:48.364Z,11.46
2019-04-06T00:20:18.923Z,11.44
2019-04-06T00:22:49.425Z,11.45
2019-04-06T00:25:20.279Z,11.40
2019-04-06T00:27:50.757Z,11.40
2019-04-06T00:30:21.422Z,11.36
2019-04-06T00:33:07.433Z,11.32
2019-04-06T00:35:39.169Z,11.28
2019-04-06T00:38:09.658Z,11.25
2019-04-06T00:40:40.156Z,11.21
2019-04-06T00:43:10.677Z,11.18
2019-04-06T00:45:41.137Z,11.19
2019-04-06T00:48:15.028Z,11.20
2019-04-06T00:50:45.454Z,11.18
2019-04-06T00:53:18.256Z,11.15
2019-04-06T00:55:55.675Z,11.15
2019-04-06T00:58:21.755Z,11.11
2019-04-06T01:00:52.788Z,11.13
2019-04-06T01:03:25.809Z,11.13
2019-04-06T01:05:56.192Z,11.12
2019-04-06T01:08:27.043Z,11.07
2019-04-06T01:10:59.889Z,10.98
2019-04-06T01:13:30.483Z,10.88
2019-04-06T01:16:04.939Z,10.80
2019-04-06T01:18:36.967Z,10.65
2019-04-06T01:21:07.433Z,10.53
2019-04-06T01:23:37.892Z,10.49
2019-04-06T01:26:09.075Z,10.47
2019-04-06T01:28:40.554Z,10.44
2019-04-06T01:31:11.013Z,10.40
2019-04-06T01:33:41.737Z,10.39
2019-04-06T01:36:12.207Z,10.38
2019-04-06T01:38:42.607Z,10.39
2019-04-06T01:41:13.398Z,10.37
2019-04-06T01:43:43.958Z,10.32
2019-04-06T01:46:14.845Z,10.28
2019-04-06T01:48:45.292Z,10.29
2019-04-06T01:51:16.111Z,10.34
2019-04-06T01:53:46.916Z,10.31
2019-04-06T01:56:20.614Z,10.24
2019-04-06T01:58:53.597Z,10.23
2019-04-06T02:01:46.959Z,10.17
2019-04-06T02:04:17.393Z,10.09
2019-04-06T02:06:50.111Z,10.09
2019-04-06T02:09:20.755Z,10.09
2019-04-06T02:11:51.640Z,10.09
2019-04-06T02:14:22.121Z,10.10
2019-04-06T02:16:53.078Z,10.10
2019-04-06T02:19:23.943Z,10.08
2019-04-06T02:21:56.418Z,9.95
2019-04-06T02:24:26.851Z,9.87
2019-04-06T02:26:57.582Z,9.82
2019-04-06T02:29:28.201Z,9.86
2019-04-06T02:32:35.928Z,9.91
2019-04-06T02:35:36.041Z,9.91
2019-04-06T02:38:19.816Z,9.93
2019-04-06T02:41:15.313Z,9.94
2019-04-06T02:43:45.764Z,9.94
2019-04-06T02:46:16.497Z,9.91
2019-04-06T02:48:46.953Z,9.93
2019-04-06T02:51:17.416Z,9.99
2019-04-06T02:53:48.297Z,10.10
2019-04-06T02:56:18.742Z,10.15
2019-04-06T02:58:49.660Z,10.17
2019-04-06T03:01:20.212Z,10.20
2019-04-06T03:03:51.048Z,10.21
2019-04-06T03:06:24.766Z,10.21
2019-04-06T03:08:55.621Z,10.17
2019-04-06T03:11:27.093Z,10.14
2019-04-06T03:14:10.250Z,10.12
2019-04-06T03:16:40.773Z,10.08
2019-04-06T03:19:11.241Z,10.08
2019-04-06T03:21:41.828Z,10.06
2019-04-06T03:24:12.226Z,10.03
2019-04-06T03:26:42.741Z,10.03
2019-04-06T03:29:16.518Z,10.00
2019-04-06T03:31:47.351Z,9.99
2019-04-06T03:34:21.205Z,9.98
2019-04-06T03:36:50.054Z,9.99
2019-04-06T03:39:20.531Z,9.99
2019-04-06T03:41:53.387Z,9.94
2019-04-06T03:44:23.826Z,9.92
2019-04-06T03:46:54.235Z,9.90
2019-04-06T03:49:24.612Z,9.90
2019-04-06T03:51:55.487Z,9.88
2019-04-06T03:54:25.874Z,9.87
2019-04-06T03:56:56.385Z,9.86
2019-04-06T03:59:26.727Z,9.89
2019-04-06T04:01:59.071Z,9.88
2019-04-06T04:04:29.503Z,9.87
2019-04-06T04:07:00.202Z,9.87
2019-04-06T04:09:30.994Z,9.87
2019-04-06T04:12:02.144Z,9.84
2019-04-06T04:14:33.714Z,9.83
2019-04-06T04:17:04.240Z,9.84
2019-04-06T04:19:34.697Z,9.82
2019-04-06T04:22:05.041Z,9.82
2019-04-06T04:24:36.128Z,9.84
2019-04-06T04:27:07.199Z,9.89
2019-04-06T04:29:37.926Z,9.91
2019-04-06T04:32:08.414Z,9.93
2019-04-06T04:34:38.929Z,9.90
2019-04-06T04:37:09.281Z,9.92
2019-04-06T04:39:41.698Z,9.92
2019-04-06T04:42:12.041Z,9.88
2019-04-06T04:44:42.696Z,9.80
2019-04-06T04:47:13.298Z,9.74
2019-04-06T04:49:45.343Z,9.73
2019-04-06T04:52:15.666Z,9.74
2019-04-06T04:54:46.062Z,9.76
2019-04-06T04:57:16.490Z,9.75
2019-04-06T04:59:46.969Z,9.77
2019-04-06T05:02:17.386Z,9.80
2019-04-06T05:04:47.736Z,9.80
2019-04-06T05:07:19.220Z,9.82
2019-04-06T05:09:49.922Z,9.89
2019-04-06T05:12:20.381Z,9.96
2019-04-06T05:15:14.921Z,10.02
2019-04-06T05:17:52.868Z,10.03
2019-04-06T05:20:44.862Z,10.08
2019-04-06T05:23:30.584Z,10.13
2019-04-06T05:26:10.350Z,10.21
2019-04-06T05:28:41.270Z,10.28
2019-04-06T05:31:12.051Z,10.35
2019-04-06T05:33:42.434Z,10.38
2019-04-06T05:36:12.998Z,10.39
2019-04-06T05:38:43.469Z,10.45
2019-04-06T05:41:15.320Z,10.48
2019-04-06T05:43:53.942Z,10.49
2019-04-06T05:46:25.045Z,10.53
2019-04-06T05:48:55.541Z,10.59
2019-04-06T05:51:26.425Z,10.63
2019-04-06T05:53:56.958Z,10.70
2019-04-06T05:56:29.860Z,10.66
2019-04-06T05:59:00.327Z,10.75
2019-04-06T06:01:31.326Z,10.89
2019-04-06T06:04:04.767Z,11.02
2019-04-06T06:06:35.250Z,11.01
2019-04-06T06:09:25.113Z,11.10
2019-04-06T06:11:56.078Z,11.25
2019-04-06T06:14:26.812Z,11.35
2019-04-06T06:16:57.324Z,11.29
2019-04-06T06:19:27.790Z,11.31
2019-04-06T06:21:58.531Z,11.42
2019-04-06T06:24:31.144Z,11.48
2019-04-06T06:27:03.728Z,11.47
2019-04-06T06:29:34.391Z,11.43
2019-04-06T06:32:28.000Z,11.45
2019-04-06T06:35:00.085Z,11.69
2019-04-06T06:37:31.682Z,11.80
2019-04-06T06:40:02.285Z,11.74
2019-04-06T06:42:36.295Z,11.77
2019-04-06T06:45:07.319Z,11.86
2019-04-06T06:47:38.042Z,11.91
2019-04-06T06:50:11.548Z,11.91
2019-04-06T06:52:41.999Z,12.07
2019-04-06T06:55:12.635Z,12.30
2019-04-06T06:57:56.939Z,12.25
2019-04-06T07:00:41.664Z,12.33
2019-04-06T07:03:17.411Z,12.52
2019-04-06T07:06:19.316Z,12.59
2019-04-06T07:09:18.973Z,12.54
2019-04-06T07:12:00.100Z,12.52
2019-04-06T07:14:44.417Z,12.45
2019-04-06T07:17:26.638Z,12.47
2019-04-06T07:20:03.294Z,12.61
2019-04-06T07:22:37.715Z,12.65
2019-04-06T07:25:08.490Z,12.67
2019-04-06T07:27:44.919Z,12.87
2019-04-06T07:30:32.872Z,13.08
2019-04-06T07:33:42.609Z,13.33
2019-04-06T07:36:26.969Z,13.44
2019-04-06T07:39:27.631Z,13.41
2019-04-06T07:42:00.683Z,13.35
2019-04-06T07:45:11.532Z,13.46
2019-04-06T07:47:43.460Z,13.55
2019-04-06T07:50:16.547Z,13.72
2019-04-06T07:52:47.534Z,13.91
2019-04-06T07:55:18.297Z,13.95
2019-04-06T07:57:48.659Z,13.78
2019-04-06T08:00:31.971Z,13.78
2019-04-06T08:03:04.019Z,13.96
2019-04-06T08:05:38.370Z,14.24
2019-04-06T08:08:12.314Z,14.51
2019-04-06T08:10:45.189Z,14.73
2019-04-06T08:13:20.733Z,14.65
2019-04-06T08:15:54.363Z,14.54
2019-04-06T08:18:29.220Z,14.50
2019-04-06T08:21:00.641Z,14.44
2019-04-06T08:23:36.314Z,14.40
2019-04-06T08:26:12.756Z,14.31
2019-04-06T08:28:45.455Z,14.30
2019-04-06T08:31:33.703Z,14.50
2019-04-06T08:34:07.201Z,14.68
2019-04-06T08:36:44.038Z,14.69
2019-04-06T08:39:17.448Z,14.84
2019-04-06T08:41:50.903Z,14.99
2019-04-06T08:44:26.882Z,15.24
2019-04-06T08:47:02.719Z,15.33
2019-04-06T08:49:33.930Z,15.24
2019-04-06T08:52:11.760Z,15.22
2019-04-06T08:54:51.659Z,15.19
2019-04-06T08:57:26.208Z,15.03
2019-04-06T08:59:58.794Z,15.05
2019-04-06T09:02:35.759Z,15.39
2019-04-06T09:05:09.005Z,15.71
2019-04-06T09:07:53.882Z,15.87
2019-04-06T09:10:27.414Z,15.76
2019-04-06T09:13:09.141Z,15.83
2019-04-06T09:15:38.764Z,15.88
2019-04-06T09:18:36.039Z,16.01
2019-04-06T09:21:06.463Z,16.24
2019-04-06T09:23:58.318Z,16.37
2019-04-06T09:26:29.075Z,16.44
2019-04-06T09:28:59.941Z,16.64
2019-04-06T09:31:32.850Z,16.75
2019-04-06T09:34:03.344Z,16.96
2019-04-06T09:36:33.920Z,17.27
2019-04-06T09:39:06.446Z,17.55
2019-04-06T09:41:38.339Z,17.65
2019-04-06T09:44:15.205Z,17.59
2019-04-06T09:47:19.879Z,17.47
2019-04-06T09:50:27.059Z,17.61
2019-04-06T09:53:22.093Z,17.70
2019-04-06T09:56:05.983Z,17.97
2019-04-06T09:58:58.640Z,18.26
2019-04-06T10:01:42.972Z,18.42
2019-04-06T10:04:45.810Z,18.46
2019-04-06T10:07:41.870Z,18.47
2019-04-06T10:10:31.044Z,18.55
2019-04-06T10:13:27.500Z,18.67
2019-04-06T10:16:04.396Z,18.80
2019-04-06T10:19:00.177Z,18.80
2019-04-06T10:21:56.321Z,19.11
2019-04-06T10:24:35.839Z,19.31
2019-04-06T10:27:25.184Z,19.36
2019-04-06T10:30:16.526Z,19.46
2019-04-06T10:33:07.556Z,19.56
2019-04-06T10:36:16.114Z,19.66
2019-04-06T10:39:09.427Z,19.89
2019-04-06T10:41:58.764Z,19.86
2019-04-06T10:44:53.802Z,19.68
2019-04-06T10:47:46.618Z,19.68
2019-04-06T10:50:28.428Z,19.71
2019-04-06T10:53:20.026Z,19.87
2019-04-06T10:56:09.091Z,20.08
2019-04-06T10:59:02.806Z,20.08
2019-04-06T11:01:53.662Z,20.25
2019-04-06T11:04:34.580Z,20.41
2019-04-06T11:07:40.900Z,20.81
2019-04-06T11:10:41.979Z,20.71
2019-04-06T11:13:40.650Z,20.79
2019-04-06T11:16:25.014Z,20.75
2019-04-06T11:19:23.754Z,20.91
2019-04-06T11:22:09.391Z,21.15
2019-04-06T11:25:03.212Z,20.96
2019-04-06T11:27:47.493Z,21.00
2019-04-06T11:30:28.519Z,21.23
2019-04-06T11:33:40.576Z,21.25
2019-04-06T11:36:30.180Z,21.19
2019-04-06T11:39:26.522Z,21.13
2019-04-06T11:42:13.440Z,21.22
2019-04-06T11:45:23.907Z,21.46
2019-04-06T11:48:19.334Z,21.35
2019-04-06T11:51:10.210Z,21.29
2019-04-06T11:54:03.454Z,21.39
2019-04-06T11:56:52.835Z,21.45
2019-04-06T11:59:59.994Z,21.43
2019-04-06T12:03:00.947Z,21.37
2019-04-06T12:05:48.366Z,21.34
2019-04-06T12:08:36.637Z,21.49
2019-04-06T12:11:26.882Z,21.60
2019-04-06T12:14:25.189Z,21.65
2019-04-06T12:17:08.825Z,21.64
2019-04-06T12:19:56.934Z,21.78
2019-04-06T12:22:33.752Z,22.00
2019-04-06T12:25:12.495Z,22.12
2019-04-06T12:28:21.490Z,22.25
2019-04-06T12:31:08.222Z,22.05
2019-04-06T12:33:53.932Z,22.09
2019-04-06T12:36:49.356Z,22.16
2019-04-06T12:39:53.427Z,22.04
2019-04-06T12:42:38.659Z,22.11
2019-04-06T12:45:27.179Z,22.24
2019-04-06T12:48:33.937Z,22.15
2019-04-06T12:51:31.976Z,22.33
2019-04-06T12:54:23.825Z,22.26
2019-04-06T12:57:33.258Z,22.27
2019-04-06T13:00:32.286Z,22.22
2019-04-06T13:03:25.270Z,22.29
2019-04-06T13:06:09.362Z,22.40
2019-04-06T13:08:52.553Z,22.69
2019-04-06T13:11:51.248Z,22.91
2019-04-06T13:14:34.470Z,22.86
2019-04-06T13:17:22.385Z,22.88
2019-04-06T13:20:15.161Z,22.97
2019-04-06T13:23:18.218Z,22.97
2019-04-06T13:26:11.222Z,22.94
2019-04-06T13:29:12.851Z,22.94
2019-04-06T13:32:01.758Z,22.93
2019-04-06T13:34:54.828Z,23.01
2019-04-06T13:37:43.012Z,23.41
2019-04-06T13:40:35.561Z,23.48
2019-04-06T13:43:23.828Z,23.61
2019-04-06T13:46:10.202Z,23.59
2019-04-06T13:49:05.598Z,23.60
2019-04-06T13:51:45.683Z,23.66
2019-04-06T13:54:33.877Z,23.47
2019-04-06T13:57:23.588Z,23.36
2019-04-06T14:00:11.465Z,23.62
2019-04-06T14:03:08.462Z,23.75
2019-04-06T14:05:57.023Z,23.78
2019-04-06T14:08:43.299Z,23.50
2019-04-06T14:11:38.337Z,23.62
2019-04-06T14:14:23.156Z,23.83
2019-04-06T14:17:11.528Z,23.86
2019-04-06T14:20:08.375Z,23.88
2019-04-06T14:22:49.015Z,23.93
2019-04-06T14:25:37.705Z,24.03
2019-04-06T14:28:39.613Z,24.07
2019-04-06T14:31:47.280Z,24.06
2019-04-06T14:34:39.379Z,24.11
2019-04-06T14:37:44.528Z,24.15
2019-04-06T14:40:29.399Z,24.17
2019-04-06T14:43:10.103Z,24.23
2019-04-06T14:46:05.656Z,24.30
2019-04-06T14:49:09.185Z,24.32
2019-04-06T14:52:03.824Z,24.37
2019-04-06T14:55:08.908Z,24.46
2019-04-06T14:58:03.814Z,24.49
2019-04-06T15:01:04.055Z,24.50
2019-04-06T15:04:02.812Z,24.51
2019-04-06T15:06:54.818Z,24.53
2019-04-06T15:09:50.686Z,24.65
2019-04-06T15:12:51.177Z,24.62
2019-04-06T15:15:51.258Z,24.43
2019-04-06T15:18:47.379Z,24.32
2019-04-06T15:21:41.210Z,24.23
2019-04-06T15:24:18.249Z,24.16
2019-04-06T15:27:10.779Z,24.11
2019-04-06T15:29:52.344Z,24.08
2019-04-06T15:32:35.634Z,24.08
2019-04-06T15:35:37.663Z,23.99
2019-04-06T15:38:25.633Z,23.84
2019-04-06T15:41:09.032Z,23.82
2019-04-06T15:44:00.363Z,23.79
2019-04-06T15:47:09.550Z,23.74
2019-04-06T15:49:57.902Z,23.67
2019-04-06T15:52:49.002Z,23.60
2019-04-06T15:55:37.295Z,23.53
2019-04-06T15:58:22.420Z,23.41
2019-04-06T16:01:11.095Z,23.36
2019-04-06T16:03:55.395Z,23.36
2019-04-06T16:06:44.333Z,23.34
2019-04-06T16:09:43.311Z,23.27
2019-04-06T16:12:31.380Z,23.22
2019-04-06T16:15:15.306Z,23.21
2019-04-06T16:18:05.969Z,23.25
2019-04-06T16:20:42.622Z,23.29
2019-04-06T16:23:23.204Z,23.24
2019-04-06T16:26:09.203Z,23.15
2019-04-06T16:28:49.721Z,23.05
2019-04-06T16:31:57.174Z,22.99
2019-04-06T16:34:47.016Z,22.82
2019-04-06T16:37:48.559Z,22.69
2019-04-06T16:40:42.802Z,22.60
2019-04-06T16:44:18.592Z,22.53
2019-04-06T16:47:25.000Z,22.39
2019-04-06T16:50:33.557Z,22.33
2019-04-06T16:53:38.231Z,22.30
2019-04-06T16:56:26.606Z,22.27
2019-04-06T16:59:06.557Z,22.25
2019-04-06T17:01:57.398Z,22.18
2019-04-06T17:04:37.389Z,22.16
2019-04-06T17:07:35.809Z,22.09
2019-04-06T17:10:17.043Z,22.04
2019-04-06T17:13:12.364Z,22.01
2019-04-06T17:16:06.331Z,22.01
2019-04-06T17:18:58.304Z,22.00
2019-04-06T17:21:51.192Z,21.97
2019-04-06T17:24:29.591Z,21.90
2019-04-06T17:27:21.196Z,21.86
2019-04-06T17:30:04.132Z,21.78
2019-04-06T17:32:42.989Z,21.72
2019-04-06T17:35:44.760Z,21.68
2019-04-06T17:38:44.779Z,21.65
2019-04-06T17:41:39.923Z,21.64
2019-04-06T17:44:40.458Z,21.58
2019-04-06T17:47:24.267Z,21.47
2019-04-06T17:50:16.528Z,21.34
2019-04-06T17:53:02.183Z,21.22
2019-04-06T17:56:04.757Z,21.14
2019-04-06T17:59:00.152Z,21.04
2019-04-06T18:01:59.027Z,20.93
2019-04-06T18:05:04.486Z,20.87
2019-04-06T18:08:04.839Z,20.79
2019-04-06T18:11:11.323Z,20.75
2019-04-06T18:13:59.769Z,20.70
2019-04-06T18:16:38.602Z,20.71
2019-04-06T18:19:15.043Z,20.69
2019-04-06T18:21:49.160Z,20.67
2019-04-06T18:24:37.997Z,20.60
2019-04-06T18:27:08.194Z,20.53
2019-04-06T18:30:18.268Z,20.49
2019-04-06T18:33:27.080Z,20.41
2019-04-06T18:36:01.187Z,20.31
2019-04-06T18:38:52.218Z,20.24
2019-04-06T18:41:24.838Z,20.13
2019-04-06T18:44:05.782Z,20.09
2019-04-06T18:46:41.910Z,20.03
2019-04-06T18:49:15.248Z,20.04
2019-04-06T18:51:54.080Z,20.06
2019-04-06T18:54:34.695Z,20.04
2019-04-06T18:57:08.314Z,20.03
2019-04-06T18:59:39.120Z,19.98
2019-04-06T19:02:11.019Z,19.90
2019-04-06T19:04:42.146Z,19.83
2019-04-06T19:07:12.823Z,19.77
2019-04-06T19:09:44.135Z,19.71
2019-04-06T19:12:15.068Z,19.66
2019-04-06T19:14:48.410Z,19.62
2019-04-06T19:17:22.947Z,19.54
2019-04-06T19:20:15.078Z,19.44
2019-04-06T19:22:45.591Z,19.33
2019-04-06T19:25:16.122Z,19.19
2019-04-06T19:27:49.714Z,19.07
2019-04-06T19:30:23.785Z,18.92
2019-04-06T19:32:56.943Z,18.83
2019-04-06T19:35:28.652Z,18.74
2019-04-06T19:38:02.460Z,18.65
2019-04-06T19:40:34.575Z,18.59
2019-04-06T19:43:09.914Z,18.57
2019-04-06T19:45:40.830Z,18.50
2019-04-06T19:48:12.466Z,18.37
2019-04-06T19:50:43.176Z,18.34
2019-04-06T19:53:13.734Z,18.28
2019-04-06T19:55:47.018Z,18.20
2019-04-06T19:58:24.979Z,18.10
2019-04-06T20:01:06.951Z,18.01
2019-04-06T20:03:42.385Z,17.97
2019-04-06T20:06:16.898Z,17.94
2019-04-06T20:08:54.261Z,17.94
2019-04-06T20:11:25.570Z,17.87
2019-04-06T20:14:01.523Z,17.86
2019-04-06T20:16:37.268Z,17.81
2019-04-06T20:19:14.076Z,17.78
2019-04-06T20:21:54.846Z,17.68
2019-04-06T20:24:30.026Z,17.60
2019-04-06T20:29:59.242Z,17.55
2019-04-06T20:32:48.437Z,17.53
2019-04-06T20:35:14.818Z,17.52
2019-04-06T20:37:47.730Z,17.50
2019-04-06T20:40:23.423Z,17.45
2019-04-06T20:43:07.241Z,17.42
2019-04-06T20:45:59.138Z,17.38
2019-04-06T20:48:38.442Z,17.32
2019-04-06T20:51:25.029Z,17.28
2019-04-06T20:54:33.085Z,17.31
2019-04-06T20:57:30.859Z,17.29
2019-04-06T21:00:10.875Z,17.30
2019-04-06T21:02:45.986Z,17.30
2019-04-06T21:05:16.997Z,17.27
2019-04-06T21:07:48.494Z,17.24
2019-04-06T21:11:06.453Z,17.20
2019-04-06T21:13:36.954Z,17.02
2019-04-06T21:16:34.324Z,16.95
2019-04-06T21:19:56.275Z,16.88
2019-04-06T21:22:29.411Z,16.82
2019-04-06T21:25:02.548Z,16.81
2019-04-06T21:27:36.295Z,16.82
2019-04-06T21:35:32.544Z,16.64
2019-04-06T21:42:16.240Z,16.51
2019-04-06T21:44:53.820Z,16.47
2019-04-06T21:47:51.158Z,16.42
2019-04-06T21:51:24.280Z,16.34
2019-04-06T21:53:55.048Z,16.24
2019-04-06T21:56:34.162Z,16.22
2019-04-06T21:59:15.297Z,16.17
2019-04-06T22:01:56.187Z,16.16
2019-04-06T22:04:27.775Z,16.12
2019-04-06T22:06:59.185Z,16.11
2019-04-06T22:09:30.190Z,16.12
2019-04-06T22:12:05.339Z,16.16
2019-04-06T22:14:33.736Z,16.15
2019-04-06T22:17:07.464Z,16.10
2019-04-06T22:19:38.244Z,16.07
2019-04-06T22:22:10.088Z,16.02
2019-04-06T22:24:43.235Z,15.99
2019-04-06T22:27:14.214Z,15.94
2019-04-06T22:29:46.318Z,15.89
2019-04-06T22:32:17.901Z,15.89
2019-04-06T22:34:48.725Z,15.90
2019-04-06T22:37:28.188Z,15.92
2019-04-06T22:40:00.337Z,15.92
2019-04-06T22:42:31.689Z,15.86
2019-04-06T22:45:14.994Z,15.75
2019-04-06T22:47:56.501Z,15.70
2019-04-06T22:50:27.336Z,15.71
2019-04-06T22:53:00.483Z,15.74
2019-04-06T22:55:35.372Z,15.71
2019-04-06T22:58:06.428Z,15.73
2019-04-06T23:01:11.665Z,15.76
2019-04-06T23:03:48.782Z,15.76
2019-04-06T23:09:59.941Z,15.75
2019-04-06T23:12:32.564Z,15.75
2019-04-06T23:15:19.027Z,15.74
2019-04-06T23:17:52.188Z,15.74
2019-04-06T23:20:26.789Z,15.72
2019-04-06T23:22:59.709Z,15.67
2019-04-06T23:25:33.494Z,15.61
2019-04-06T23:28:04.843Z,15.57
2019-04-06T23:30:37.485Z,15.53
2019-04-06T23:33:10.292Z,15.47
2019-04-06T23:35:41.318Z,15.45
2019-04-06T23:38:13.997Z,15.41
2019-04-06T23:40:44.357Z,15.36
2019-04-06T23:43:14.956Z,15.22
2019-04-06T23:45:51.495Z,15.09
2019-04-06T23:48:22.438Z,14.97
2019-04-06T23:50:56.639Z,14.84
2019-04-06T23:53:30.548Z,14.74
2019-04-06T23:56:10.973Z,14.67
2019-04-06T23:58:43.149Z,14.59
